sensor_id;sensor_type;location;lat;lon;timestamp;temperature;humidity
4312;DHT22;2169;49.086;9.284;2023-04-25T00:00:30;11.00;58.60
4312;DHT22;2169;49.086;9.284;2023-04-25T00:02:57;10.90;58.60
4312;DHT22;2169;49.086;9.284;2023-04-25T00:05:25;10.90;58.60
4312;DHT22;2169;49.086;9.284;2023-04-25T00:07:54;10.90;58.60
4312;DHT22;2169;49.086;9.284;2023-04-25T00:10:21;10.90;58.70
4312;DHT22;2169;49.086;9.284;2023-04-25T00:12:48;10.90;58.70
4312;DHT22;2169;49.086;9.284;2023-04-25T00:15:15;10.90;58.80
4312;DHT22;2169;49.086;9.284;2023-04-25T00:17:43;10.90;58.80
4312;DHT22;2169;49.086;9.284;2023-04-25T00:20:11;10.90;58.90
4312;DHT22;2169;49.086;9.284;2023-04-25T00:22:38;10.90;58.90
4312;DHT22;2169;49.086;9.284;2023-04-25T00:25:07;10.90;58.90
4312;DHT22;2169;49.086;9.284;2023-04-25T00:27:34;10.90;59.00
4312;DHT22;2169;49.086;9.284;2023-04-25T00:30:01;10.90;59.00
4312;DHT22;2169;49.086;9.284;2023-04-25T00:32:28;10.90;59.60
4312;DHT22;2169;49.086;9.284;2023-04-25T00:34:55;10.80;59.00
4312;DHT22;2169;49.086;9.284;2023-04-25T00:37:23;10.80;59.10
4312;DHT22;2169;49.086;9.284;2023-04-25T00:39:50;10.80;59.20
4312;DHT22;2169;49.086;9.284;2023-04-25T00:42:20;10.80;59.20
4312;DHT22;2169;49.086;9.284;2023-04-25T00:44:48;10.80;59.30
4312;DHT22;2169;49.086;9.284;2023-04-25T00:47:15;10.70;59.30
4312;DHT22;2169;49.086;9.284;2023-04-25T00:49:42;10.70;59.30
4312;DHT22;2169;49.086;9.284;2023-04-25T00:52:10;10.70;59.40
4312;DHT22;2169;49.086;9.284;2023-04-25T00:54:37;10.70;59.40
4312;DHT22;2169;49.086;9.284;2023-04-25T00:57:04;10.70;59.40
4312;DHT22;2169;49.086;9.284;2023-04-25T00:59:33;10.70;59.40
4312;DHT22;2169;49.086;9.284;2023-04-25T01:02:01;10.60;59.30
4312;DHT22;2169;49.086;9.284;2023-04-25T01:04:28;10.60;59.30
4312;DHT22;2169;49.086;9.284;2023-04-25T01:06:55;10.60;59.40
4312;DHT22;2169;49.086;9.284;2023-04-25T01:09:22;10.60;59.40
4312;DHT22;2169;49.086;9.284;2023-04-25T01:11:49;10.60;59.30
4312;DHT22;2169;49.086;9.284;2023-04-25T01:14:16;10.60;59.30
4312;DHT22;2169;49.086;9.284;2023-04-25T01:16:45;10.60;59.40
4312;DHT22;2169;49.086;9.284;2023-04-25T01:19:16;10.60;59.40
4312;DHT22;2169;49.086;9.284;2023-04-25T01:21:45;10.60;59.50
4312;DHT22;2169;49.086;9.284;2023-04-25T01:24:12;10.50;59.40
4312;DHT22;2169;49.086;9.284;2023-04-25T01:26:40;10.50;59.40
4312;DHT22;2169;49.086;9.284;2023-04-25T01:29:10;10.50;59.40
4312;DHT22;2169;49.086;9.284;2023-04-25T01:31:37;10.40;59.40
4312;DHT22;2169;49.086;9.284;2023-04-25T01:34:05;10.50;59.50
4312;DHT22;2169;49.086;9.284;2023-04-25T01:36:31;10.40;59.50
4312;DHT22;2169;49.086;9.284;2023-04-25T01:39:00;10.40;59.60
4312;DHT22;2169;49.086;9.284;2023-04-25T01:41:27;10.40;59.70
4312;DHT22;2169;49.086;9.284;2023-04-25T01:43:55;10.40;59.70
4312;DHT22;2169;49.086;9.284;2023-04-25T01:46:22;10.40;59.80
4312;DHT22;2169;49.086;9.284;2023-04-25T01:48:49;10.40;59.90
4312;DHT22;2169;49.086;9.284;2023-04-25T01:51:16;10.40;60.00
4312;DHT22;2169;49.086;9.284;2023-04-25T01:53:43;10.30;59.90
4312;DHT22;2169;49.086;9.284;2023-04-25T01:56:11;10.30;60.00
4312;DHT22;2169;49.086;9.284;2023-04-25T01:58:38;10.30;60.00
4312;DHT22;2169;49.086;9.284;2023-04-25T02:01:05;10.30;60.10
4312;DHT22;2169;49.086;9.284;2023-04-25T02:03:32;10.20;60.00
4312;DHT22;2169;49.086;9.284;2023-04-25T02:05:59;10.30;60.20
4312;DHT22;2169;49.086;9.284;2023-04-25T02:08:26;10.20;60.10
4312;DHT22;2169;49.086;9.284;2023-04-25T02:10:53;10.20;60.10
4312;DHT22;2169;49.086;9.284;2023-04-25T02:13:22;10.20;60.20
4312;DHT22;2169;49.086;9.284;2023-04-25T02:15:49;10.20;60.20
4312;DHT22;2169;49.086;9.284;2023-04-25T02:18:16;10.20;60.20
4312;DHT22;2169;49.086;9.284;2023-04-25T02:20:43;10.20;60.30
4312;DHT22;2169;49.086;9.284;2023-04-25T02:23:09;10.20;60.30
4312;DHT22;2169;49.086;9.284;2023-04-25T02:25:36;10.20;60.30
4312;DHT22;2169;49.086;9.284;2023-04-25T02:28:03;10.20;60.30
4312;DHT22;2169;49.086;9.284;2023-04-25T02:30:32;10.10;60.30
4312;DHT22;2169;49.086;9.284;2023-04-25T02:32:59;10.10;60.40
4312;DHT22;2169;49.086;9.284;2023-04-25T02:35:26;10.10;60.40
4312;DHT22;2169;49.086;9.284;2023-04-25T02:37:52;10.10;60.50
4312;DHT22;2169;49.086;9.284;2023-04-25T02:40:19;10.10;60.50
4312;DHT22;2169;49.086;9.284;2023-04-25T02:42:46;10.10;60.60
4312;DHT22;2169;49.086;9.284;2023-04-25T02:45:13;10.10;60.60
4312;DHT22;2169;49.086;9.284;2023-04-25T02:47:41;10.10;60.60
4312;DHT22;2169;49.086;9.284;2023-04-25T02:50:09;10.10;60.70
4312;DHT22;2169;49.086;9.284;2023-04-25T02:52:35;10.10;60.70
4312;DHT22;2169;49.086;9.284;2023-04-25T02:55:02;10.10;61.40
4312;DHT22;2169;49.086;9.284;2023-04-25T02:57:29;10.10;60.80
4312;DHT22;2169;49.086;9.284;2023-04-25T02:59:56;10.10;60.90
4312;DHT22;2169;49.086;9.284;2023-04-25T03:02:24;10.10;60.90
4312;DHT22;2169;49.086;9.284;2023-04-25T03:04:52;10.10;61.00
4312;DHT22;2169;49.086;9.284;2023-04-25T03:07:19;10.10;61.00
4312;DHT22;2169;49.086;9.284;2023-04-25T03:09:46;10.10;61.10
4312;DHT22;2169;49.086;9.284;2023-04-25T03:12:13;10.00;61.00
4312;DHT22;2169;49.086;9.284;2023-04-25T03:14:40;10.00;61.10
4312;DHT22;2169;49.086;9.284;2023-04-25T03:17:07;10.00;61.10
4312;DHT22;2169;49.086;9.284;2023-04-25T03:19:33;10.00;61.10
4312;DHT22;2169;49.086;9.284;2023-04-25T03:22:02;10.00;61.10
4312;DHT22;2169;49.086;9.284;2023-04-25T03:24:29;10.00;61.10
4312;DHT22;2169;49.086;9.284;2023-04-25T03:26:56;9.90;62.20
4312;DHT22;2169;49.086;9.284;2023-04-25T03:29:22;9.90;62.20
4312;DHT22;2169;49.086;9.284;2023-04-25T03:31:51;9.90;62.30
4312;DHT22;2169;49.086;9.284;2023-04-25T03:34:19;9.90;62.40
4312;DHT22;2169;49.086;9.284;2023-04-25T03:36:47;9.90;62.40
4312;DHT22;2169;49.086;9.284;2023-04-25T03:39:15;9.90;62.50
4312;DHT22;2169;49.086;9.284;2023-04-25T03:41:42;9.90;62.50
4312;DHT22;2169;49.086;9.284;2023-04-25T03:44:09;9.90;62.60
4312;DHT22;2169;49.086;9.284;2023-04-25T03:46:36;9.90;62.60
4312;DHT22;2169;49.086;9.284;2023-04-25T03:49:03;9.90;62.60
4312;DHT22;2169;49.086;9.284;2023-04-25T03:51:30;9.90;62.70
4312;DHT22;2169;49.086;9.284;2023-04-25T03:53:57;9.90;62.80
4312;DHT22;2169;49.086;9.284;2023-04-25T03:56:25;9.90;62.90
4312;DHT22;2169;49.086;9.284;2023-04-25T03:58:53;9.80;62.90
4312;DHT22;2169;49.086;9.284;2023-04-25T04:01:20;9.80;62.90
4312;DHT22;2169;49.086;9.284;2023-04-25T04:03:47;9.80;63.00
4312;DHT22;2169;49.086;9.284;2023-04-25T04:06:14;9.80;63.10
4312;DHT22;2169;49.086;9.284;2023-04-25T04:08:41;9.80;63.10
4312;DHT22;2169;49.086;9.284;2023-04-25T04:11:09;9.80;63.10
4312;DHT22;2169;49.086;9.284;2023-04-25T04:13:37;9.80;63.20
4312;DHT22;2169;49.086;9.284;2023-04-25T04:16:05;9.80;63.20
4312;DHT22;2169;49.086;9.284;2023-04-25T04:18:32;9.80;63.20
4312;DHT22;2169;49.086;9.284;2023-04-25T04:20:59;9.80;63.30
4312;DHT22;2169;49.086;9.284;2023-04-25T04:23:26;9.70;63.20
4312;DHT22;2169;49.086;9.284;2023-04-25T04:25:54;9.70;63.30
4312;DHT22;2169;49.086;9.284;2023-04-25T04:28:21;9.70;63.30
4312;DHT22;2169;49.086;9.284;2023-04-25T04:30:50;9.70;63.30
4312;DHT22;2169;49.086;9.284;2023-04-25T04:33:18;9.80;63.40
4312;DHT22;2169;49.086;9.284;2023-04-25T04:35:46;9.70;63.30
4312;DHT22;2169;49.086;9.284;2023-04-25T04:38:14;9.70;63.40
4312;DHT22;2169;49.086;9.284;2023-04-25T04:40:44;9.70;63.40
4312;DHT22;2169;49.086;9.284;2023-04-25T04:43:11;9.70;63.50
4312;DHT22;2169;49.086;9.284;2023-04-25T04:45:38;9.70;63.60
4312;DHT22;2169;49.086;9.284;2023-04-25T04:48:07;9.70;63.50
4312;DHT22;2169;49.086;9.284;2023-04-25T04:50:40;9.60;63.50
4312;DHT22;2169;49.086;9.284;2023-04-25T04:53:24;9.60;63.50
4312;DHT22;2169;49.086;9.284;2023-04-25T04:56:05;9.60;63.60
4312;DHT22;2169;49.086;9.284;2023-04-25T04:58:32;9.60;63.60
4312;DHT22;2169;49.086;9.284;2023-04-25T05:01:00;9.60;63.60
4312;DHT22;2169;49.086;9.284;2023-04-25T05:03:30;9.60;63.70
4312;DHT22;2169;49.086;9.284;2023-04-25T05:05:56;9.60;63.60
4312;DHT22;2169;49.086;9.284;2023-04-25T05:08:23;9.60;63.70
4312;DHT22;2169;49.086;9.284;2023-04-25T05:10:50;9.60;63.70
4312;DHT22;2169;49.086;9.284;2023-04-25T05:13:17;9.60;63.70
4312;DHT22;2169;49.086;9.284;2023-04-25T05:15:44;9.60;63.80
4312;DHT22;2169;49.086;9.284;2023-04-25T05:18:11;9.60;63.90
4312;DHT22;2169;49.086;9.284;2023-04-25T05:20:39;9.60;63.90
4312;DHT22;2169;49.086;9.284;2023-04-25T05:23:06;9.60;63.90
4312;DHT22;2169;49.086;9.284;2023-04-25T05:25:33;9.60;63.90
4312;DHT22;2169;49.086;9.284;2023-04-25T05:28:00;9.60;63.90
4312;DHT22;2169;49.086;9.284;2023-04-25T05:30:27;9.60;63.90
4312;DHT22;2169;49.086;9.284;2023-04-25T05:32:54;9.60;63.90
4312;DHT22;2169;49.086;9.284;2023-04-25T05:35:21;9.60;63.90
4312;DHT22;2169;49.086;9.284;2023-04-25T05:37:50;9.60;64.00
4312;DHT22;2169;49.086;9.284;2023-04-25T05:40:17;9.60;64.00
4312;DHT22;2169;49.086;9.284;2023-04-25T05:42:44;9.60;64.00
4312;DHT22;2169;49.086;9.284;2023-04-25T05:45:11;9.60;64.10
4312;DHT22;2169;49.086;9.284;2023-04-25T05:47:39;9.60;64.10
4312;DHT22;2169;49.086;9.284;2023-04-25T05:50:07;9.60;64.10
4312;DHT22;2169;49.086;9.284;2023-04-25T05:52:35;9.60;64.10
4312;DHT22;2169;49.086;9.284;2023-04-25T05:55:04;9.60;64.10
4312;DHT22;2169;49.086;9.284;2023-04-25T05:57:32;9.60;64.20
4312;DHT22;2169;49.086;9.284;2023-04-25T06:00:14;9.60;64.10
4312;DHT22;2169;49.086;9.284;2023-04-25T06:02:42;9.60;64.20
4312;DHT22;2169;49.086;9.284;2023-04-25T06:05:09;9.60;64.20
4312;DHT22;2169;49.086;9.284;2023-04-25T06:07:36;9.60;64.30
4312;DHT22;2169;49.086;9.284;2023-04-25T06:10:06;9.70;64.30
4312;DHT22;2169;49.086;9.284;2023-04-25T06:12:34;9.70;64.30
4312;DHT22;2169;49.086;9.284;2023-04-25T06:15:01;9.70;64.30
4312;DHT22;2169;49.086;9.284;2023-04-25T06:17:28;9.70;64.30
4312;DHT22;2169;49.086;9.284;2023-04-25T06:19:55;9.80;64.40
4312;DHT22;2169;49.086;9.284;2023-04-25T06:22:21;9.70;64.30
4312;DHT22;2169;49.086;9.284;2023-04-25T06:24:48;9.80;64.40
4312;DHT22;2169;49.086;9.284;2023-04-25T06:27:16;9.80;64.40
4312;DHT22;2169;49.086;9.284;2023-04-25T06:29:43;9.90;64.50
4312;DHT22;2169;49.086;9.284;2023-04-25T06:32:10;9.90;64.40
4312;DHT22;2169;49.086;9.284;2023-04-25T06:34:37;9.90;64.30
4312;DHT22;2169;49.086;9.284;2023-04-25T06:37:04;9.90;64.40
4312;DHT22;2169;49.086;9.284;2023-04-25T06:39:31;9.90;64.30
4312;DHT22;2169;49.086;9.284;2023-04-25T06:41:58;10.00;64.10
4312;DHT22;2169;49.086;9.284;2023-04-25T06:44:27;10.00;63.40
4312;DHT22;2169;49.086;9.284;2023-04-25T06:46:55;10.00;63.30
4312;DHT22;2169;49.086;9.284;2023-04-25T06:49:22;10.10;63.30
4312;DHT22;2169;49.086;9.284;2023-04-25T06:51:48;10.10;63.30
4312;DHT22;2169;49.086;9.284;2023-04-25T06:54:15;10.10;63.30
4312;DHT22;2169;49.086;9.284;2023-04-25T06:56:43;10.10;63.20
4312;DHT22;2169;49.086;9.284;2023-04-25T06:59:10;10.10;63.20
4312;DHT22;2169;49.086;9.284;2023-04-25T07:01:38;10.10;63.20
4312;DHT22;2169;49.086;9.284;2023-04-25T07:04:06;10.10;63.20
4312;DHT22;2169;49.086;9.284;2023-04-25T07:06:33;10.10;63.90
4312;DHT22;2169;49.086;9.284;2023-04-25T07:09:03;10.10;63.90
4312;DHT22;2169;49.086;9.284;2023-04-25T07:11:30;10.10;63.20
4312;DHT22;2169;49.086;9.284;2023-04-25T07:13:57;10.10;63.20
4312;DHT22;2169;49.086;9.284;2023-04-25T07:16:25;10.10;63.20
4312;DHT22;2169;49.086;9.284;2023-04-25T07:18:53;10.10;63.20
4312;DHT22;2169;49.086;9.284;2023-04-25T07:21:20;10.20;63.30
4312;DHT22;2169;49.086;9.284;2023-04-25T07:23:48;10.20;63.30
4312;DHT22;2169;49.086;9.284;2023-04-25T07:26:15;10.20;63.30
4312;DHT22;2169;49.086;9.284;2023-04-25T07:28:43;10.20;63.30
4312;DHT22;2169;49.086;9.284;2023-04-25T07:31:10;10.20;63.30
4312;DHT22;2169;49.086;9.284;2023-04-25T07:33:36;10.30;63.30
4312;DHT22;2169;49.086;9.284;2023-04-25T07:36:08;10.30;63.30
4312;DHT22;2169;49.086;9.284;2023-04-25T07:38:35;10.30;63.20
4312;DHT22;2169;49.086;9.284;2023-04-25T07:41:02;10.40;63.20
4312;DHT22;2169;49.086;9.284;2023-04-25T07:43:29;10.40;63.20
4312;DHT22;2169;49.086;9.284;2023-04-25T07:45:57;10.40;63.10
4312;DHT22;2169;49.086;9.284;2023-04-25T07:48:24;10.40;63.10
4312;DHT22;2169;49.086;9.284;2023-04-25T07:50:53;10.50;63.00
4312;DHT22;2169;49.086;9.284;2023-04-25T07:53:22;10.40;62.80
4312;DHT22;2169;49.086;9.284;2023-04-25T07:55:50;10.40;62.70
4312;DHT22;2169;49.086;9.284;2023-04-25T07:58:17;10.40;62.70
4312;DHT22;2169;49.086;9.284;2023-04-25T08:00:47;10.40;62.60
4312;DHT22;2169;49.086;9.284;2023-04-25T08:03:14;10.50;62.70
4312;DHT22;2169;49.086;9.284;2023-04-25T08:05:42;10.50;62.50
4312;DHT22;2169;49.086;9.284;2023-04-25T08:08:09;10.50;62.40
4312;DHT22;2169;49.086;9.284;2023-04-25T08:10:38;10.60;62.40
4312;DHT22;2169;49.086;9.284;2023-04-25T08:13:04;10.60;62.30
4312;DHT22;2169;49.086;9.284;2023-04-25T08:15:32;10.60;62.10
4312;DHT22;2169;49.086;9.284;2023-04-25T08:17:59;10.60;62.00
4312;DHT22;2169;49.086;9.284;2023-04-25T08:20:26;10.70;62.10
4312;DHT22;2169;49.086;9.284;2023-04-25T08:23:16;10.70;61.80
4312;DHT22;2169;49.086;9.284;2023-04-25T08:25:58;10.70;61.60
4312;DHT22;2169;49.086;9.284;2023-04-25T08:28:25;10.70;61.60
4312;DHT22;2169;49.086;9.284;2023-04-25T08:30:52;10.70;61.60
4312;DHT22;2169;49.086;9.284;2023-04-25T08:33:19;10.70;61.50
4312;DHT22;2169;49.086;9.284;2023-04-25T08:35:47;10.70;61.40
4312;DHT22;2169;49.086;9.284;2023-04-25T08:38:14;10.70;61.50
4312;DHT22;2169;49.086;9.284;2023-04-25T08:40:41;10.70;61.40
4312;DHT22;2169;49.086;9.284;2023-04-25T08:43:13;10.80;61.40
4312;DHT22;2169;49.086;9.284;2023-04-25T08:45:41;10.80;61.30
4312;DHT22;2169;49.086;9.284;2023-04-25T08:48:11;10.80;61.30
4312;DHT22;2169;49.086;9.284;2023-04-25T08:50:39;10.90;61.30
4312;DHT22;2169;49.086;9.284;2023-04-25T08:53:09;10.90;61.30
4312;DHT22;2169;49.086;9.284;2023-04-25T08:55:43;10.90;61.20
4312;DHT22;2169;49.086;9.284;2023-04-25T08:58:13;11.00;61.20
4312;DHT22;2169;49.086;9.284;2023-04-25T09:00:41;11.00;61.00
4312;DHT22;2169;49.086;9.284;2023-04-25T09:03:08;11.00;60.90
4312;DHT22;2169;49.086;9.284;2023-04-25T09:05:35;11.10;61.00
4312;DHT22;2169;49.086;9.284;2023-04-25T09:08:02;11.10;60.90
4312;DHT22;2169;49.086;9.284;2023-04-25T09:10:29;11.10;60.90
4312;DHT22;2169;49.086;9.284;2023-04-25T09:13:05;11.20;61.00
4312;DHT22;2169;49.086;9.284;2023-04-25T09:15:46;11.20;61.00
4312;DHT22;2169;49.086;9.284;2023-04-25T09:18:13;11.30;60.90
4312;DHT22;2169;49.086;9.284;2023-04-25T09:20:48;11.30;60.80
4312;DHT22;2169;49.086;9.284;2023-04-25T09:23:15;11.40;60.80
4312;DHT22;2169;49.086;9.284;2023-04-25T09:25:42;11.40;60.70
4312;DHT22;2169;49.086;9.284;2023-04-25T09:28:09;11.50;60.70
4312;DHT22;2169;49.086;9.284;2023-04-25T09:30:38;11.50;60.50
4312;DHT22;2169;49.086;9.284;2023-04-25T09:33:06;11.60;60.30
4312;DHT22;2169;49.086;9.284;2023-04-25T09:35:37;11.60;60.20
4312;DHT22;2169;49.086;9.284;2023-04-25T09:38:10;11.60;60.00
4312;DHT22;2169;49.086;9.284;2023-04-25T09:40:43;11.50;59.30
4312;DHT22;2169;49.086;9.284;2023-04-25T09:43:18;11.30;58.70
4312;DHT22;2169;49.086;9.284;2023-04-25T09:45:46;11.10;58.70
4312;DHT22;2169;49.086;9.284;2023-04-25T09:48:17;11.00;58.90
4312;DHT22;2169;49.086;9.284;2023-04-25T09:50:45;10.90;59.10
4312;DHT22;2169;49.086;9.284;2023-04-25T09:53:13;10.80;59.20
4312;DHT22;2169;49.086;9.284;2023-04-25T09:55:42;10.80;59.50
4312;DHT22;2169;49.086;9.284;2023-04-25T09:58:11;10.70;59.60
4312;DHT22;2169;49.086;9.284;2023-04-25T10:00:41;10.70;59.80
4312;DHT22;2169;49.086;9.284;2023-04-25T10:03:11;10.70;60.00
4312;DHT22;2169;49.086;9.284;2023-04-25T10:05:38;10.70;60.10
4312;DHT22;2169;49.086;9.284;2023-04-25T10:08:06;10.70;60.10
4312;DHT22;2169;49.086;9.284;2023-04-25T10:10:34;10.80;60.20
4312;DHT22;2169;49.086;9.284;2023-04-25T10:13:04;10.80;60.40
4312;DHT22;2169;49.086;9.284;2023-04-25T10:15:34;10.80;60.40
4312;DHT22;2169;49.086;9.284;2023-04-25T10:18:02;10.80;60.40
4312;DHT22;2169;49.086;9.284;2023-04-25T10:20:30;10.80;60.40
4312;DHT22;2169;49.086;9.284;2023-04-25T10:23:06;10.90;60.60
4312;DHT22;2169;49.086;9.284;2023-04-25T10:25:33;10.90;60.70
4312;DHT22;2169;49.086;9.284;2023-04-25T10:28:03;10.90;60.70
4312;DHT22;2169;49.086;9.284;2023-04-25T10:30:31;11.00;60.90
4312;DHT22;2169;49.086;9.284;2023-04-25T10:33:00;11.00;61.50
4312;DHT22;2169;49.086;9.284;2023-04-25T10:35:29;11.00;60.80
4312;DHT22;2169;49.086;9.284;2023-04-25T10:37:59;11.00;60.80
4312;DHT22;2169;49.086;9.284;2023-04-25T10:40:27;11.00;61.00
4312;DHT22;2169;49.086;9.284;2023-04-25T10:42:54;11.00;61.20
4312;DHT22;2169;49.086;9.284;2023-04-25T10:45:22;11.00;61.40
4312;DHT22;2169;49.086;9.284;2023-04-25T10:47:49;11.00;61.70
4312;DHT22;2169;49.086;9.284;2023-04-25T10:50:16;11.00;61.90
4312;DHT22;2169;49.086;9.284;2023-04-25T10:52:44;11.00;62.10
4312;DHT22;2169;49.086;9.284;2023-04-25T10:55:13;11.00;62.10
4312;DHT22;2169;49.086;9.284;2023-04-25T10:57:41;11.00;62.30
4312;DHT22;2169;49.086;9.284;2023-04-25T11:00:12;11.00;62.30
4312;DHT22;2169;49.086;9.284;2023-04-25T11:02:45;11.10;62.50
4312;DHT22;2169;49.086;9.284;2023-04-25T11:05:20;11.10;62.50
4312;DHT22;2169;49.086;9.284;2023-04-25T11:07:52;11.10;62.70
4312;DHT22;2169;49.086;9.284;2023-04-25T11:10:20;11.10;62.90
4312;DHT22;2169;49.086;9.284;2023-04-25T11:12:46;11.20;63.10
4312;DHT22;2169;49.086;9.284;2023-04-25T11:15:14;11.30;63.20
4312;DHT22;2169;49.086;9.284;2023-04-25T11:17:41;11.30;63.30
4312;DHT22;2169;49.086;9.284;2023-04-25T11:20:10;11.30;63.30
4312;DHT22;2169;49.086;9.284;2023-04-25T11:22:39;11.30;63.50
4312;DHT22;2169;49.086;9.284;2023-04-25T11:25:10;11.40;63.70
4312;DHT22;2169;49.086;9.284;2023-04-25T11:27:49;11.40;63.80
4312;DHT22;2169;49.086;9.284;2023-04-25T11:30:17;11.50;64.00
4312;DHT22;2169;49.086;9.284;2023-04-25T11:32:44;11.50;64.10
4312;DHT22;2169;49.086;9.284;2023-04-25T11:35:12;11.50;64.20
4312;DHT22;2169;49.086;9.284;2023-04-25T11:37:39;11.50;64.30
4312;DHT22;2169;49.086;9.284;2023-04-25T11:40:10;11.60;64.40
4312;DHT22;2169;49.086;9.284;2023-04-25T11:42:38;11.60;64.50
4312;DHT22;2169;49.086;9.284;2023-04-25T11:45:06;11.60;64.50
4312;DHT22;2169;49.086;9.284;2023-04-25T11:47:34;11.60;64.60
4312;DHT22;2169;49.086;9.284;2023-04-25T11:50:01;11.70;64.60
4312;DHT22;2169;49.086;9.284;2023-04-25T11:52:39;11.70;64.60
4312;DHT22;2169;49.086;9.284;2023-04-25T11:55:10;11.70;64.80
4312;DHT22;2169;49.086;9.284;2023-04-25T11:57:38;11.70;65.00
4312;DHT22;2169;49.086;9.284;2023-04-25T12:00:10;11.80;65.20
4312;DHT22;2169;49.086;9.284;2023-04-25T12:02:41;11.80;65.30
4312;DHT22;2169;49.086;9.284;2023-04-25T12:05:09;11.90;65.40
4312;DHT22;2169;49.086;9.284;2023-04-25T12:07:36;11.90;65.30
4312;DHT22;2169;49.086;9.284;2023-04-25T12:10:05;11.90;65.20
4312;DHT22;2169;49.086;9.284;2023-04-25T12:12:35;11.80;65.00
4312;DHT22;2169;49.086;9.284;2023-04-25T12:15:10;11.80;64.90
4312;DHT22;2169;49.086;9.284;2023-04-25T12:17:38;11.90;65.00
4312;DHT22;2169;49.086;9.284;2023-04-25T12:20:08;11.90;65.00
4312;DHT22;2169;49.086;9.284;2023-04-25T12:22:35;11.90;64.90
4312;DHT22;2169;49.086;9.284;2023-04-25T12:25:03;11.90;64.80
4312;DHT22;2169;49.086;9.284;2023-04-25T12:27:31;12.00;64.70
4312;DHT22;2169;49.086;9.284;2023-04-25T12:30:00;12.00;64.60
4312;DHT22;2169;49.086;9.284;2023-04-25T12:32:27;12.10;64.50
4312;DHT22;2169;49.086;9.284;2023-04-25T12:34:54;12.10;64.40
4312;DHT22;2169;49.086;9.284;2023-04-25T12:37:21;12.10;64.10
4312;DHT22;2169;49.086;9.284;2023-04-25T12:39:48;12.00;64.00
4312;DHT22;2169;49.086;9.284;2023-04-25T12:42:16;12.00;64.00
4312;DHT22;2169;49.086;9.284;2023-04-25T12:44:43;11.90;64.00
4312;DHT22;2169;49.086;9.284;2023-04-25T12:47:11;11.90;63.90
4312;DHT22;2169;49.086;9.284;2023-04-25T12:49:38;11.90;64.10
4312;DHT22;2169;49.086;9.284;2023-04-25T12:52:05;11.90;64.10
4312;DHT22;2169;49.086;9.284;2023-04-25T12:54:32;11.90;64.30
4312;DHT22;2169;49.086;9.284;2023-04-25T12:56:59;12.00;64.40
4312;DHT22;2169;49.086;9.284;2023-04-25T12:59:28;12.00;65.10
4312;DHT22;2169;49.086;9.284;2023-04-25T13:01:55;12.00;64.40
4312;DHT22;2169;49.086;9.284;2023-04-25T13:04:23;12.00;64.40
4312;DHT22;2169;49.086;9.284;2023-04-25T13:06:50;12.10;64.60
4312;DHT22;2169;49.086;9.284;2023-04-25T13:09:17;12.20;64.70
4312;DHT22;2169;49.086;9.284;2023-04-25T13:11:44;12.20;64.60
4312;DHT22;2169;49.086;9.284;2023-04-25T13:14:11;12.20;64.60
4312;DHT22;2169;49.086;9.284;2023-04-25T13:16:38;12.30;64.80
4312;DHT22;2169;49.086;9.284;2023-04-25T13:19:05;12.30;64.70
4312;DHT22;2169;49.086;9.284;2023-04-25T13:21:35;12.40;64.50
4312;DHT22;2169;49.086;9.284;2023-04-25T13:24:01;12.50;64.20
4312;DHT22;2169;49.086;9.284;2023-04-25T13:26:28;12.50;63.80
4312;DHT22;2169;49.086;9.284;2023-04-25T13:28:55;12.70;63.50
4312;DHT22;2169;49.086;9.284;2023-04-25T13:31:22;12.70;63.00
4312;DHT22;2169;49.086;9.284;2023-04-25T13:33:50;12.80;62.70
4312;DHT22;2169;49.086;9.284;2023-04-25T13:36:16;12.90;62.10
4312;DHT22;2169;49.086;9.284;2023-04-25T13:38:45;12.90;61.30
4312;DHT22;2169;49.086;9.284;2023-04-25T13:41:13;12.90;61.20
4312;DHT22;2169;49.086;9.284;2023-04-25T13:43:44;13.00;60.90
4312;DHT22;2169;49.086;9.284;2023-04-25T13:46:12;13.00;60.80
4312;DHT22;2169;49.086;9.284;2023-04-25T13:48:40;13.10;60.50
4312;DHT22;2169;49.086;9.284;2023-04-25T13:51:14;13.10;60.20
4312;DHT22;2169;49.086;9.284;2023-04-25T13:53:44;13.20;59.80
4312;DHT22;2169;49.086;9.284;2023-04-25T13:56:11;13.30;59.50
4312;DHT22;2169;49.086;9.284;2023-04-25T13:58:38;13.30;59.30
4312;DHT22;2169;49.086;9.284;2023-04-25T14:01:06;13.40;58.90
4312;DHT22;2169;49.086;9.284;2023-04-25T14:03:33;13.40;58.30
4312;DHT22;2169;49.086;9.284;2023-04-25T14:06:00;13.50;58.00
4312;DHT22;2169;49.086;9.284;2023-04-25T14:08:27;13.50;57.50
4312;DHT22;2169;49.086;9.284;2023-04-25T14:10:56;13.50;57.20
4312;DHT22;2169;49.086;9.284;2023-04-25T14:13:22;13.50;57.10
4312;DHT22;2169;49.086;9.284;2023-04-25T14:15:50;13.50;56.60
4312;DHT22;2169;49.086;9.284;2023-04-25T14:18:17;13.50;56.20
4312;DHT22;2169;49.086;9.284;2023-04-25T14:20:44;13.50;56.10
4312;DHT22;2169;49.086;9.284;2023-04-25T14:23:11;13.50;56.10
4312;DHT22;2169;49.086;9.284;2023-04-25T14:25:39;13.50;55.60
4312;DHT22;2169;49.086;9.284;2023-04-25T14:28:09;13.60;55.00
4312;DHT22;2169;49.086;9.284;2023-04-25T14:30:36;13.60;54.90
4312;DHT22;2169;49.086;9.284;2023-04-25T14:33:03;13.60;54.70
4312;DHT22;2169;49.086;9.284;2023-04-25T14:35:30;13.60;54.60
4312;DHT22;2169;49.086;9.284;2023-04-25T14:37:57;13.70;54.30
4312;DHT22;2169;49.086;9.284;2023-04-25T14:40:25;13.70;54.00
4312;DHT22;2169;49.086;9.284;2023-04-25T14:42:52;13.60;53.60
4312;DHT22;2169;49.086;9.284;2023-04-25T14:45:20;13.70;53.50
4312;DHT22;2169;49.086;9.284;2023-04-25T14:47:47;13.60;53.40
4312;DHT22;2169;49.086;9.284;2023-04-25T14:50:14;13.70;53.40
4312;DHT22;2169;49.086;9.284;2023-04-25T14:52:41;13.70;53.40
4312;DHT22;2169;49.086;9.284;2023-04-25T14:55:08;13.70;53.30
4312;DHT22;2169;49.086;9.284;2023-04-25T14:57:35;13.80;53.50
4312;DHT22;2169;49.086;9.284;2023-04-25T15:00:06;13.80;53.30
4312;DHT22;2169;49.086;9.284;2023-04-25T15:02:36;13.90;52.70
4312;DHT22;2169;49.086;9.284;2023-04-25T15:05:04;13.90;52.00
4312;DHT22;2169;49.086;9.284;2023-04-25T15:07:31;13.80;51.80
4312;DHT22;2169;49.086;9.284;2023-04-25T15:10:00;13.80;51.80
4312;DHT22;2169;49.086;9.284;2023-04-25T15:12:26;13.90;51.90
4312;DHT22;2169;49.086;9.284;2023-04-25T15:14:53;13.90;51.70
4312;DHT22;2169;49.086;9.284;2023-04-25T15:17:20;14.00;51.60
4312;DHT22;2169;49.086;9.284;2023-04-25T15:19:49;14.00;51.40
4312;DHT22;2169;49.086;9.284;2023-04-25T15:22:20;14.10;51.00
4312;DHT22;2169;49.086;9.284;2023-04-25T15:24:47;14.10;50.70
4312;DHT22;2169;49.086;9.284;2023-04-25T15:27:14;14.00;50.30
4312;DHT22;2169;49.086;9.284;2023-04-25T15:29:41;14.00;49.90
4312;DHT22;2169;49.086;9.284;2023-04-25T15:32:08;14.00;50.10
4312;DHT22;2169;49.086;9.284;2023-04-25T15:34:35;14.10;50.10
4312;DHT22;2169;49.086;9.284;2023-04-25T15:37:03;14.10;50.00
4312;DHT22;2169;49.086;9.284;2023-04-25T15:39:32;14.10;49.70
4312;DHT22;2169;49.086;9.284;2023-04-25T15:42:00;14.20;49.50
4312;DHT22;2169;49.086;9.284;2023-04-25T15:44:28;14.20;49.30
4312;DHT22;2169;49.086;9.284;2023-04-25T15:46:55;14.20;49.20
4312;DHT22;2169;49.086;9.284;2023-04-25T15:49:22;14.20;49.00
4312;DHT22;2169;49.086;9.284;2023-04-25T15:51:49;14.20;48.90
4312;DHT22;2169;49.086;9.284;2023-04-25T15:54:18;14.20;48.90
4312;DHT22;2169;49.086;9.284;2023-04-25T15:56:44;14.20;48.80
4312;DHT22;2169;49.086;9.284;2023-04-25T15:59:12;14.20;48.90
4312;DHT22;2169;49.086;9.284;2023-04-25T16:01:39;14.20;48.70
4312;DHT22;2169;49.086;9.284;2023-04-25T16:04:06;14.20;48.90
4312;DHT22;2169;49.086;9.284;2023-04-25T16:06:33;14.20;49.00
4312;DHT22;2169;49.086;9.284;2023-04-25T16:09:01;14.20;48.90